createdAt,value
2023-05-16T00:02:03.520Z,99651.47
2023-05-16T00:04:33.231Z,99651.06
2023-05-16T00:07:01.470Z,99653.13
2023-05-16T00:09:30.205Z,99654.53
2023-05-16T00:11:59.259Z,99657.63
2023-05-16T00:14:28.407Z,99656.59
2023-05-16T00:16:57.702Z,99652.66
2023-05-16T00:19:27.751Z,99650.41
2023-05-16T00:21:56.170Z,99647.09
2023-05-16T00:24:24.597Z,99660.66
2023-05-16T00:26:53.033Z,99667.84
2023-05-16T00:29:22.169Z,99667.66
2023-05-16T00:31:50.783Z,99669.50
2023-05-16T00:34:21.438Z,99673.81
2023-05-16T00:36:56.543Z,99663.34
2023-05-16T00:39:25.395Z,99670.53
2023-05-16T00:41:54.061Z,99665.41
2023-05-16T00:44:22.199Z,99667.25
2023-05-16T00:46:50.317Z,99680.78
2023-05-16T00:49:18.992Z,99677.25
2023-05-16T00:51:47.382Z,99686.91
2023-05-16T00:54:16.146Z,99696.53
2023-05-16T00:56:44.701Z,99693.41
2023-05-16T00:59:12.979Z,99702.00
2023-05-16T01:01:42.829Z,99696.44
2023-05-16T01:04:11.746Z,99704.22
2023-05-16T01:06:39.862Z,99700.31
2023-05-16T01:09:09.536Z,99695.56
2023-05-16T01:11:59.200Z,99707.25
2023-05-16T01:15:18.246Z,99700.44
2023-05-16T01:18:03.079Z,99716.47
2023-05-16T01:20:58.384Z,99710.94
2023-05-16T01:23:41.468Z,99718.97
2023-05-16T01:26:24.024Z,99723.47
2023-05-16T01:28:53.856Z,99719.34
2023-05-16T01:31:25.591Z,99724.25
2023-05-16T01:33:54.116Z,99721.75
2023-05-16T01:37:05.891Z,99721.16
2023-05-16T01:39:47.201Z,99716.19
2023-05-16T01:42:17.236Z,99716.81
2023-05-16T01:45:08.628Z,99723.00
2023-05-16T01:47:41.840Z,99731.00
2023-05-16T01:50:16.581Z,99731.63
2023-05-16T01:53:11.353Z,99730.59
2023-05-16T01:55:51.220Z,99742.06
2023-05-16T01:58:24.905Z,99742.69
2023-05-16T02:00:55.497Z,99742.25
2023-05-16T02:03:23.749Z,99747.59
2023-05-16T02:05:52.387Z,99741.63
2023-05-16T02:08:20.751Z,99736.69
2023-05-16T02:10:49.296Z,99745.25
2023-05-16T02:13:17.818Z,99758.38
2023-05-16T02:15:46.521Z,99739.88
2023-05-16T02:18:14.796Z,99752.50
2023-05-16T02:20:43.039Z,99762.09
2023-05-16T02:23:11.188Z,99775.56
2023-05-16T02:25:39.694Z,99777.16
2023-05-16T02:28:07.957Z,99785.28
2023-05-16T02:30:36.088Z,99778.41
2023-05-16T02:33:04.416Z,99789.47
2023-05-16T02:35:32.599Z,99793.72
2023-05-16T02:38:01.322Z,99815.16
2023-05-16T02:40:30.185Z,99806.53
2023-05-16T02:42:58.348Z,99812.41
2023-05-16T02:45:27.163Z,99815.19
2023-05-16T02:47:55.968Z,99811.25
2023-05-16T02:50:24.533Z,99818.59
2023-05-16T02:52:52.985Z,99829.44
2023-05-16T02:55:22.574Z,99835.97
2023-05-16T02:57:51.959Z,99833.03
2023-05-16T03:00:20.797Z,99831.56
2023-05-16T03:02:49.763Z,99834.59
2023-05-16T03:05:18.462Z,99826.59
2023-05-16T03:07:47.011Z,99831.47
2023-05-16T03:10:15.576Z,99828.81
2023-05-16T03:12:43.818Z,99829.38
2023-05-16T03:15:12.439Z,99834.25
2023-05-16T03:17:41.000Z,99835.63
2023-05-16T03:20:11.227Z,99833.13
2023-05-16T03:22:40.675Z,99831.50
2023-05-16T03:25:09.496Z,99834.31
2023-05-16T03:27:38.019Z,99841.03
2023-05-16T03:30:07.480Z,99835.59
2023-05-16T03:32:36.342Z,99838.28
2023-05-16T03:35:05.203Z,99830.84
2023-05-16T03:37:33.652Z,99840.84
2023-05-16T03:40:03.546Z,99846.53
2023-05-16T03:42:32.346Z,99854.72
2023-05-16T03:45:00.883Z,99857.00
2023-05-16T03:47:32.050Z,99863.16
2023-05-16T03:50:00.509Z,99861.22
2023-05-16T03:52:29.057Z,99867.66
2023-05-16T03:54:57.546Z,99877.94
2023-05-16T03:57:26.171Z,99876.09
2023-05-16T03:59:54.332Z,99874.91
2023-05-16T04:02:22.911Z,99888.69
2023-05-16T04:04:51.531Z,99886.22
2023-05-16T04:07:22.498Z,99895.31
2023-05-16T04:09:53.281Z,99899.91
2023-05-16T04:12:21.746Z,99896.34
2023-05-16T04:14:49.989Z,99904.78
2023-05-16T04:17:18.639Z,99903.44
2023-05-16T04:19:47.095Z,99908.19
2023-05-16T04:22:15.217Z,99902.47
2023-05-16T04:24:43.739Z,99902.09
2023-05-16T04:27:12.205Z,99912.41
2023-05-16T04:29:40.616Z,99923.91
2023-05-16T04:32:09.674Z,99920.06
2023-05-16T04:34:40.051Z,99925.81
2023-05-16T04:37:09.566Z,99931.81
2023-05-16T04:39:38.208Z,99932.91
2023-05-16T04:42:07.124Z,99934.56
2023-05-16T04:44:35.611Z,99939.91
2023-05-16T04:47:04.173Z,99942.34
2023-05-16T04:49:33.375Z,99940.72
2023-05-16T04:52:01.508Z,99950.00
2023-05-16T04:54:30.034Z,99954.94
2023-05-16T04:56:58.358Z,99955.41
2023-05-16T04:59:26.569Z,99963.25
2023-05-16T05:01:55.132Z,99962.59
2023-05-16T05:04:23.723Z,99967.47
2023-05-16T05:06:51.813Z,99964.97
2023-05-16T05:09:20.696Z,99967.28
2023-05-16T05:11:49.108Z,99972.63
2023-05-16T05:14:17.815Z,99988.44
2023-05-16T05:16:45.960Z,99990.91
2023-05-16T05:19:14.469Z,99988.31
2023-05-16T05:21:43.026Z,99984.66
2023-05-16T05:24:11.484Z,99989.53
2023-05-16T05:26:40.255Z,99991.19
2023-05-16T05:29:08.667Z,99998.53
2023-05-16T05:31:36.837Z,99981.34
2023-05-16T05:34:05.547Z,99992.47
2023-05-16T05:36:34.275Z,99987.59
2023-05-16T05:39:02.794Z,99991.09
2023-05-16T05:41:30.920Z,99993.13
2023-05-16T05:43:59.066Z,99992.09
2023-05-16T05:46:27.364Z,99990.72
2023-05-16T05:48:55.975Z,99993.00
2023-05-16T05:51:24.550Z,100004.13
2023-05-16T05:53:53.749Z,100008.47
2023-05-16T05:56:22.472Z,100007.91
2023-05-16T05:58:51.010Z,100017.19
2023-05-16T06:01:21.150Z,100013.50
2023-05-16T06:03:50.094Z,100016.81
2023-05-16T06:06:19.362Z,100019.97
2023-05-16T06:08:47.842Z,100022.34
2023-05-16T06:11:16.391Z,100014.34
2023-05-16T06:13:44.974Z,100019.03
2023-05-16T06:16:13.964Z,100021.34
2023-05-16T06:18:42.527Z,100024.00
2023-05-16T06:21:11.242Z,100020.13
2023-05-16T06:23:39.881Z,100020.44
2023-05-16T06:26:07.948Z,100026.41
2023-05-16T06:28:38.421Z,100037.34
2023-05-16T06:31:06.977Z,100034.69
2023-05-16T06:33:35.711Z,100036.16
2023-05-16T06:36:04.794Z,100043.41
2023-05-16T06:38:33.328Z,100042.84
2023-05-16T06:41:01.896Z,100047.06
2023-05-16T06:43:30.498Z,100052.47
2023-05-16T06:45:59.262Z,100045.75
2023-05-16T06:48:28.008Z,100048.03
2023-05-16T06:50:59.337Z,100042.31
2023-05-16T06:53:28.816Z,100044.53
2023-05-16T06:55:57.486Z,100059.34
2023-05-16T06:58:25.977Z,100060.19
2023-05-16T07:00:54.185Z,100060.56
2023-05-16T07:03:25.619Z,100058.47
2023-05-16T07:05:54.182Z,100067.88
2023-05-16T07:08:22.395Z,100074.03
2023-05-16T07:10:50.935Z,100060.47
2023-05-16T07:13:19.125Z,100070.63
2023-05-16T07:15:47.201Z,100078.88
2023-05-16T07:18:15.539Z,100088.16
2023-05-16T07:20:43.640Z,100084.66
2023-05-16T07:23:12.140Z,100097.47
2023-05-16T07:25:40.933Z,100099.09
2023-05-16T07:28:09.047Z,100096.25
2023-05-16T07:30:37.535Z,100102.06
2023-05-16T07:33:06.216Z,100100.84
2023-05-16T07:35:34.378Z,100097.78
2023-05-16T07:38:02.884Z,100101.53
2023-05-16T07:40:31.392Z,100100.16
2023-05-16T07:42:59.628Z,100105.94
2023-05-16T07:45:27.920Z,100103.47
2023-05-16T07:47:56.583Z,100108.84
2023-05-16T07:50:25.249Z,100110.91
2023-05-16T07:52:53.736Z,100107.84
2023-05-16T07:55:22.460Z,100098.94
2023-05-16T07:57:51.733Z,100105.56
2023-05-16T08:00:21.597Z,100097.38
2023-05-16T08:02:51.226Z,100092.03
2023-05-16T08:05:19.584Z,100096.97
2023-05-16T08:07:48.265Z,100091.78
2023-05-16T08:10:16.839Z,100094.38
2023-05-16T08:12:45.028Z,100081.72
2023-05-16T08:15:13.632Z,100088.59
2023-05-16T08:17:41.939Z,100097.53
2023-05-16T08:20:10.644Z,100089.69
2023-05-16T08:22:39.178Z,100088.38
2023-05-16T08:25:09.066Z,100093.69
2023-05-16T08:27:37.178Z,100092.84
2023-05-16T08:30:06.076Z,100087.91
2023-05-16T08:32:34.245Z,100089.81
2023-05-16T08:35:02.423Z,100074.88
2023-05-16T08:37:30.575Z,100079.00
2023-05-16T08:40:00.205Z,100070.25
2023-05-16T08:42:28.806Z,100073.22
2023-05-16T08:44:57.333Z,100067.53
2023-05-16T08:47:28.475Z,100072.91
2023-05-16T08:49:59.805Z,100081.72
2023-05-16T08:52:30.193Z,100078.16
2023-05-16T08:55:11.481Z,100074.41
2023-05-16T08:57:41.554Z,100075.66
2023-05-16T09:00:13.051Z,100089.03
2023-05-16T09:02:47.460Z,100083.69
2023-05-16T09:05:17.479Z,100087.19
2023-05-16T09:07:47.251Z,100091.16
2023-05-16T09:10:15.804Z,100089.34
2023-05-16T09:12:44.607Z,100095.16
2023-05-16T09:15:13.457Z,100098.69
2023-05-16T09:17:45.376Z,100105.72
2023-05-16T09:20:16.625Z,100101.59
2023-05-16T09:22:56.550Z,100105.84
2023-05-16T09:25:31.371Z,100110.50
2023-05-16T09:28:03.419Z,100120.31
2023-05-16T09:30:35.227Z,100119.88
2023-05-16T09:33:04.197Z,100132.44
2023-05-16T09:38:04.769Z,100136.19
2023-05-16T09:40:33.334Z,100140.44
2023-05-16T09:43:07.986Z,100144.13
2023-05-16T09:45:37.939Z,100145.38
2023-05-16T09:48:13.158Z,100161.44
2023-05-16T09:50:43.010Z,100159.75
2023-05-16T09:53:11.188Z,100164.38
2023-05-16T09:55:39.716Z,100164.25
2023-05-16T09:58:07.892Z,100167.56
2023-05-16T10:00:36.296Z,100175.09
2023-05-16T10:03:06.158Z,100164.38
2023-05-16T10:05:35.984Z,100176.06
2023-05-16T10:08:09.483Z,100165.34
2023-05-16T10:10:39.060Z,100167.41
2023-05-16T10:13:09.909Z,100165.16
2023-05-16T10:15:39.511Z,100172.03
2023-05-16T10:18:13.466Z,100167.94
2023-05-16T10:20:46.171Z,100168.41
2023-05-16T10:23:22.539Z,100165.16
2023-05-16T10:25:51.460Z,100164.19
2023-05-16T10:28:20.281Z,100168.81
2023-05-16T10:30:49.260Z,100169.25
2023-05-16T10:33:20.172Z,100171.97
2023-05-16T10:35:48.811Z,100186.38
2023-05-16T10:38:19.889Z,100185.94
2023-05-16T10:40:49.237Z,100189.88
2023-05-16T10:43:30.707Z,100193.94
2023-05-16T10:46:04.551Z,100185.25
2023-05-16T10:48:34.083Z,100193.25
2023-05-16T10:51:04.216Z,100193.41
2023-05-16T10:53:35.228Z,100207.19
2023-05-16T10:56:03.418Z,100206.47
2023-05-16T10:58:35.200Z,100205.16
2023-05-16T11:01:30.286Z,100207.75
2023-05-16T11:03:59.068Z,100202.41
2023-05-16T11:06:35.091Z,100189.69
2023-05-16T11:09:06.846Z,100189.03
2023-05-16T11:11:55.232Z,100191.97
2023-05-16T11:14:23.796Z,100186.41
2023-05-16T11:17:10.788Z,100189.97
2023-05-16T11:20:00.338Z,100190.88
2023-05-16T11:22:31.103Z,100188.69
2023-05-16T11:25:05.759Z,100188.38
2023-05-16T11:27:48.619Z,100197.56
2023-05-16T11:30:19.521Z,100190.25
2023-05-16T11:32:49.200Z,100199.16
2023-05-16T11:35:19.145Z,100193.88
2023-05-16T11:37:48.718Z,100200.28
2023-05-16T11:40:17.366Z,100203.97
2023-05-16T11:42:48.778Z,100206.63
2023-05-16T11:45:20.176Z,100208.84
2023-05-16T11:47:50.401Z,100209.06
2023-05-16T11:50:23.497Z,100218.56
2023-05-16T11:52:56.245Z,100226.06
2023-05-16T11:58:02.695Z,100220.56
2023-05-16T12:00:31.238Z,100216.50
2023-05-16T12:03:06.059Z,100209.09
2023-05-16T12:05:35.738Z,100206.59
2023-05-16T12:08:05.825Z,100209.06
2023-05-16T12:10:35.242Z,100216.66
2023-05-16T12:13:04.554Z,100206.91
2023-05-16T12:15:33.218Z,100207.53
2023-05-16T12:18:02.640Z,100198.03
2023-05-16T12:20:31.249Z,100200.31
2023-05-16T12:22:59.735Z,100198.31
2023-05-16T12:25:32.885Z,100209.69
2023-05-16T12:28:05.061Z,100200.25
2023-05-16T12:30:34.292Z,100199.84
2023-05-16T12:33:07.616Z,100185.03
2023-05-16T12:35:39.815Z,100188.16
2023-05-16T12:38:17.449Z,100192.69
2023-05-16T12:40:46.545Z,100192.13
2023-05-16T12:43:21.804Z,100184.66
2023-05-16T12:45:58.883Z,100175.59
2023-05-16T12:48:35.296Z,100173.06
2023-05-16T12:51:18.842Z,100174.91
2023-05-16T12:54:05.665Z,100183.59
2023-05-16T12:56:38.282Z,100170.59
2023-05-16T12:59:06.898Z,100173.47
2023-05-16T13:01:38.943Z,100180.53
2023-05-16T13:04:08.323Z,100203.47
2023-05-16T13:06:56.612Z,100196.44
2023-05-16T13:09:29.959Z,100209.66
2023-05-16T13:11:59.925Z,100212.13
2023-05-16T13:14:28.466Z,100226.38
2023-05-16T13:16:56.999Z,100215.03
2023-05-16T13:19:25.842Z,100219.34
2023-05-16T13:21:54.580Z,100228.22
2023-05-16T13:24:23.103Z,100233.81
2023-05-16T13:26:51.579Z,100234.03
2023-05-16T13:29:20.064Z,100229.88
2023-05-16T13:31:48.639Z,100236.69
2023-05-16T13:34:17.207Z,100226.19
2023-05-16T13:36:53.972Z,100211.94
2023-05-16T13:39:23.688Z,100206.34
2023-05-16T13:41:53.031Z,100213.97
2023-05-16T13:44:22.767Z,100210.03
2023-05-16T13:46:51.456Z,100216.84
2023-05-16T13:49:20.005Z,100210.22
2023-05-16T13:51:48.991Z,100213.72
2023-05-16T13:54:17.511Z,100222.81
2023-05-16T13:56:46.339Z,100222.81
2023-05-16T13:59:18.494Z,100231.69
2023-05-16T14:01:52.650Z,100224.47
2023-05-16T14:04:21.295Z,100222.59
2023-05-16T14:06:50.075Z,100232.50
2023-05-16T14:09:18.712Z,100233.94
2023-05-16T14:11:47.184Z,100221.59
2023-05-16T14:14:15.691Z,100231.28
2023-05-16T14:16:46.038Z,100225.28
2023-05-16T14:19:18.149Z,100233.13
2023-05-16T14:21:47.595Z,100217.84
2023-05-16T14:24:16.196Z,100213.72
2023-05-16T14:26:44.985Z,100221.75
2023-05-16T14:29:13.643Z,100226.53
2023-05-16T14:31:42.543Z,100221.34
2023-05-16T14:34:11.316Z,100232.94
2023-05-16T14:36:39.975Z,100231.50
2023-05-16T14:39:08.701Z,100232.13
2023-05-16T14:41:37.491Z,100228.88
2023-05-16T14:44:06.084Z,100230.72
2023-05-16T14:46:34.725Z,100235.69
2023-05-16T14:49:04.141Z,100233.59
2023-05-16T14:51:33.198Z,100222.66
2023-05-16T14:54:01.718Z,100219.16
2023-05-16T14:56:30.495Z,100218.31
2023-05-16T14:58:59.733Z,100222.00
2023-05-16T15:01:28.137Z,100224.25
2023-05-16T15:03:56.947Z,100228.00
2023-05-16T15:06:26.032Z,100233.13
2023-05-16T15:08:54.664Z,100227.34
2023-05-16T15:11:23.432Z,100235.41
2023-05-16T15:13:51.947Z,100224.69
2023-05-16T15:16:20.538Z,100227.19
2023-05-16T15:18:49.049Z,100238.34
2023-05-16T15:21:17.618Z,100236.94
2023-05-16T15:23:47.069Z,100222.25
2023-05-16T15:26:15.585Z,100248.09
2023-05-16T15:28:44.247Z,100230.91
2023-05-16T15:31:12.962Z,100229.91
2023-05-16T15:33:41.604Z,100233.19
2023-05-16T15:36:09.903Z,100242.66
2023-05-16T15:38:38.353Z,100231.72
2023-05-16T15:41:22.367Z,100230.88
2023-05-16T15:43:57.626Z,100231.72
2023-05-16T15:46:26.763Z,100223.06
2023-05-16T15:48:55.634Z,100217.69
2023-05-16T15:51:24.153Z,100213.59
2023-05-16T15:53:53.218Z,100226.38
2023-05-16T15:56:21.872Z,100223.28
2023-05-16T15:58:50.489Z,100217.91
2023-05-16T16:01:19.082Z,100221.00
2023-05-16T16:03:47.796Z,100211.50
2023-05-16T16:06:16.461Z,100214.63
2023-05-16T16:08:45.027Z,100211.09
2023-05-16T16:11:13.565Z,100204.72
2023-05-16T16:13:42.326Z,100214.41
2023-05-16T16:16:10.986Z,100201.19
2023-05-16T16:18:39.554Z,100194.75
2023-05-16T16:21:07.920Z,100203.47
2023-05-16T16:23:36.473Z,100210.88
2023-05-16T16:26:06.068Z,100205.31
2023-05-16T16:28:35.260Z,100220.59
2023-05-16T16:31:04.188Z,100218.75
2023-05-16T16:33:34.148Z,100210.28
2023-05-16T16:36:03.001Z,100211.94
2023-05-16T16:38:31.511Z,100205.13
2023-05-16T16:41:00.028Z,100216.06
2023-05-16T16:43:28.537Z,100215.63
2023-05-16T16:45:57.198Z,100210.47
2023-05-16T16:48:25.974Z,100215.59
2023-05-16T16:50:54.530Z,100209.81
2023-05-16T16:53:23.049Z,100216.00
2023-05-16T16:55:51.926Z,100218.91
2023-05-16T16:58:20.801Z,100225.06
2023-05-16T17:00:49.669Z,100224.88
2023-05-16T17:03:18.279Z,100230.25
2023-05-16T17:05:46.638Z,100225.50
2023-05-16T17:08:15.160Z,100222.00
2023-05-16T17:10:43.722Z,100227.38
2023-05-16T17:13:14.292Z,100223.84
2023-05-16T17:15:44.214Z,100213.53
2023-05-16T17:18:12.988Z,100234.16
2023-05-16T17:20:41.320Z,100228.38
2023-05-16T17:23:09.904Z,100235.19
2023-05-16T17:25:38.428Z,100250.44
2023-05-16T17:28:06.676Z,100247.56
2023-05-16T17:30:35.257Z,100259.94
2023-05-16T17:33:03.935Z,100253.53
2023-05-16T17:35:32.467Z,100260.97
2023-05-16T17:38:01.117Z,100267.34
2023-05-16T17:40:29.359Z,100273.97
2023-05-16T17:42:58.008Z,100279.91
2023-05-16T17:45:26.926Z,100275.78
2023-05-16T17:47:55.939Z,100276.00
2023-05-16T17:50:25.049Z,100286.47
2023-05-16T17:52:53.578Z,100289.13
2023-05-16T17:55:23.453Z,100297.16
2023-05-16T17:57:52.168Z,100290.34
2023-05-16T18:00:22.640Z,100292.16
2023-05-16T18:02:52.351Z,100296.03
2023-05-16T18:05:21.301Z,100303.63
2023-05-16T18:07:50.153Z,100300.28
2023-05-16T18:10:18.846Z,100300.03
2023-05-16T18:12:47.476Z,100308.00
2023-05-16T18:15:16.313Z,100305.09
2023-05-16T18:17:45.042Z,100305.50
2023-05-16T18:20:13.998Z,100308.69
2023-05-16T18:22:43.550Z,100307.38
2023-05-16T18:25:12.736Z,100307.97
2023-05-16T18:27:41.617Z,100315.56
2023-05-16T18:30:10.797Z,100320.84
2023-05-16T18:32:39.569Z,100319.59
2023-05-16T18:35:08.293Z,100318.69
2023-05-16T18:37:37.013Z,100319.28
2023-05-16T18:40:05.813Z,100323.16
2023-05-16T18:42:34.301Z,100329.28
2023-05-16T18:45:03.381Z,100331.72
2023-05-16T18:47:32.165Z,100340.28
2023-05-16T18:50:01.186Z,100356.28
2023-05-16T18:52:29.479Z,100365.91
2023-05-16T18:54:58.769Z,100368.28
2023-05-16T18:57:27.003Z,100365.56
2023-05-16T18:59:58.657Z,100373.53
2023-05-16T19:02:37.996Z,100375.06
2023-05-16T19:05:11.033Z,100383.03
2023-05-16T19:07:39.658Z,100379.41
2023-05-16T19:10:09.205Z,100381.63
2023-05-16T19:12:37.389Z,100395.72
2023-05-16T19:15:06.495Z,100388.44
2023-05-16T19:17:35.148Z,100395.16
2023-05-16T19:20:03.865Z,100396.75
2023-05-16T19:22:32.548Z,100396.47
2023-05-16T19:25:01.080Z,100402.38
2023-05-16T19:27:30.015Z,100406.59
2023-05-16T19:29:58.765Z,100410.66
2023-05-16T19:32:27.518Z,100418.41
2023-05-16T19:34:59.511Z,100415.44
2023-05-16T19:37:28.390Z,100413.31
2023-05-16T19:39:56.893Z,100420.84
2023-05-16T19:42:25.047Z,100413.56
2023-05-16T19:44:53.686Z,100411.59
2023-05-16T19:47:22.378Z,100408.66
2023-05-16T19:49:51.135Z,100419.69
2023-05-16T19:52:22.385Z,100429.44
2023-05-16T19:54:50.945Z,100424.63
2023-05-16T19:57:19.618Z,100436.69
2023-05-16T19:59:48.129Z,100436.84
2023-05-16T20:02:17.718Z,100449.56
2023-05-16T20:04:47.145Z,100448.25
2023-05-16T20:07:15.794Z,100448.97
2023-05-16T20:09:44.038Z,100456.66
2023-05-16T20:12:12.835Z,100456.19
2023-05-16T20:14:42.160Z,100456.19
2023-05-16T20:17:10.685Z,100452.84
2023-05-16T20:19:43.811Z,100452.38
2023-05-16T20:22:12.424Z,100453.91
2023-05-16T20:24:40.579Z,100448.06
2023-05-16T20:27:08.738Z,100455.09
2023-05-16T20:29:37.120Z,100454.63
2023-05-16T20:32:05.977Z,100464.66
2023-05-16T20:34:34.455Z,100462.34
2023-05-16T20:37:02.985Z,100463.69
2023-05-16T20:39:31.798Z,100466.34
2023-05-16T20:42:00.603Z,100464.88
2023-05-16T20:44:29.692Z,100463.19
2023-05-16T20:46:58.199Z,100466.41
2023-05-16T20:49:26.738Z,100468.38
2023-05-16T20:51:54.892Z,100467.06
2023-05-16T20:54:22.993Z,100467.59
2023-05-16T20:56:51.701Z,100462.63
2023-05-16T20:59:20.694Z,100468.28
2023-05-16T21:01:49.507Z,100466.13
2023-05-16T21:04:18.263Z,100461.50
2023-05-16T21:06:47.148Z,100471.66
2023-05-16T21:09:15.689Z,100465.84
2023-05-16T21:11:44.418Z,100472.16
2023-05-16T21:14:13.046Z,100476.84
2023-05-16T21:16:41.784Z,100469.19
2023-05-16T21:19:13.175Z,100474.69
2023-05-16T21:21:41.503Z,100471.22
2023-05-16T21:24:10.167Z,100473.19
2023-05-16T21:26:40.104Z,100476.88
2023-05-16T21:29:09.058Z,100475.22
2023-05-16T21:31:37.675Z,100487.41
2023-05-16T21:34:06.312Z,100484.22
2023-05-16T21:36:35.241Z,100486.41
2023-05-16T21:39:04.047Z,100486.91
2023-05-16T21:41:32.222Z,100485.56
2023-05-16T21:44:00.800Z,100486.59
2023-05-16T21:46:29.372Z,100481.41
2023-05-16T21:48:57.927Z,100490.72
2023-05-16T21:51:26.554Z,100475.91
2023-05-16T21:53:54.624Z,100481.44
2023-05-16T21:56:23.214Z,100476.25
2023-05-16T21:58:51.701Z,100487.25
2023-05-16T22:01:20.340Z,100480.25
2023-05-16T22:03:49.045Z,100476.09
2023-05-16T22:06:17.699Z,100474.44
2023-05-16T22:08:46.520Z,100477.94
2023-05-16T22:11:15.275Z,100482.59
2023-05-16T22:13:44.381Z,100479.94
2023-05-16T22:16:12.530Z,100487.28
2023-05-16T22:18:41.103Z,100494.44
2023-05-16T22:21:09.720Z,100491.91
2023-05-16T22:23:38.605Z,100491.41
2023-05-16T22:26:07.262Z,100485.78
2023-05-16T22:28:35.375Z,100501.72
2023-05-16T22:31:03.907Z,100497.44
2023-05-16T22:33:32.536Z,100506.56
2023-05-16T22:36:03.089Z,100503.22
2023-05-16T22:38:31.864Z,100504.56
2023-05-16T22:41:00.549Z,100503.72
2023-05-16T22:43:29.097Z,100510.22
2023-05-16T22:45:57.732Z,100510.38
2023-05-16T22:48:26.367Z,100515.22
2023-05-16T22:50:54.651Z,100515.31
2023-05-16T22:53:23.159Z,100505.00
2023-05-16T22:55:51.813Z,100505.66
2023-05-16T22:58:20.359Z,100520.47
2023-05-16T23:00:48.990Z,100514.78
2023-05-16T23:03:17.619Z,100521.59
2023-05-16T23:05:46.967Z,100530.88
2023-05-16T23:08:38.229Z,100539.38
2023-05-16T23:11:06.457Z,100535.38
2023-05-16T23:13:34.623Z,100533.69
2023-05-16T23:16:30.425Z,100534.19
2023-05-16T23:18:59.026Z,100544.00
2023-05-16T23:21:27.555Z,100545.13
2023-05-16T23:23:56.793Z,100540.44
2023-05-16T23:26:24.951Z,100533.31
2023-05-16T23:28:53.416Z,100541.59
2023-05-16T23:31:22.326Z,100537.13
2023-05-16T23:33:50.823Z,100537.97
2023-05-16T23:36:19.293Z,100533.63
2023-05-16T23:38:47.609Z,100540.09
2023-05-16T23:41:15.799Z,100541.25
2023-05-16T23:43:44.471Z,100542.06
2023-05-16T23:46:12.601Z,100547.09
2023-05-16T23:48:41.304Z,100552.56
2023-05-16T23:51:09.934Z,100548.91
2023-05-16T23:53:38.622Z,100547.38
2023-05-16T23:56:06.902Z,100545.88
2023-05-16T23:58:35.011Z,100552.53
